Terminal Aerodrome Forecast
Issued by NWS Wakefield, VA

Home | Current Version | Previous Version | Text Only | Print | Product List | Glossary On
Versions: 1 2 3 4 5 6 7 8 9 10 11 12 13 14 15 16 17 18
000
FTUS41 KAKQ 050934 AAC
TAFRIC
TAF AMD
KRIC 050934Z 0510/0606 12005KT 4SM -RA BR SCT005 OVC040
      TEMPO 0510/0512 OVC005
     FM051200 VRB03KT P6SM BKN020 OVC050
     FM051600 29004KT P6SM SCT040 BKN080
     FM052000 34006KT P6SM SCT250=

USA.gov is the U.S. government's official web portal to all federal, state and local government web resources and services.